Deadwood, South Dakota
Current Conditions -  °F | °C
As of 2:55 AM on Thursday 23 Oct 2014 (Local Time) from KSPF Reporting Station
Clear Clear  
Wind Chill: 41°   Ceiling: Unl
Heat Index: 41°   Visibility: 10mi
Dew Point: 25°   Wind: 3mph
Humidity: 53%   Direction: 270°W
Pressure: 30.01"   Gusts: NA
Location:  44.38°N, 103.73°W
Report Text: KSPF 230855Z AUTO 27003KT 10SM CLR 05/M04 A3001 RMK AO2
Loading
Personal Weather Stations






























Interactive Weather Map
Tropical Storm Tracking
New forecast layout! Learn more

10-Day Weather Forecast

Advertisements
Track Severe Weather on mobile